Time;durP1;ratioP1;P1;durP2;ratioP2;P2;SDS_P1;SDS_P2;PMS_P1;PMS_P2;Temp;Humidity;BMP_temperature;BMP_pressure;BME280_temperature;BME280_humidity;BME280_pressure;Samples;Min_cycle;Max_cycle;Signal;HPM_P1;HPM_P2
2024/02/19 00:00:43;;;;;;;17.88;6.03;;;10.30;99.90;;;;;;6334435;28;20543;-91
2024/02/19 00:03:45;;;;;;;18.17;5.68;;;10.30;99.90;;;;;;6285418;28;20057;-91
2024/02/19 00:06:48;;;;;;;14.88;5.60;;;10.30;99.90;;;;;;6337851;28;20699;-92
2024/02/19 00:09:51;;;;;;;16.33;5.80;;;10.30;99.90;;;;;;6315711;28;20067;-91
2024/02/19 00:12:55;;;;;;;16.45;6.07;;;10.20;99.90;;;;;;6316228;28;20045;-91
2024/02/19 00:15:56;;;;;;;12.60;5.28;;;10.00;99.90;;;;;;6315967;28;20051;-92
2024/02/19 00:18:59;;;;;;;15.75;5.45;;;10.10;99.90;;;;;;6322444;28;20074;-92
2024/02/19 00:22:01;;;;;;;16.42;5.40;;;9.90;99.90;;;;;;6343485;28;20075;-91
2024/02/19 00:25:04;;;;;;;18.00;6.60;;;9.90;99.90;;;;;;6324147;28;20063;-90
2024/02/19 00:28:10;;;;;;;23.27;6.88;;;9.80;99.90;;;;;;6345322;28;20033;-90
2024/02/19 00:31:17;;;;;;;19.83;5.90;;;9.70;99.90;;;;;;6323777;28;20052;-90
2024/02/19 00:34:19;;;;;;;17.65;6.40;;;9.70;99.90;;;;;;6336415;28;20047;-91
2024/02/19 00:37:20;;;;;;;15.57;6.53;;;9.60;99.90;;;;;;6317462;28;20049;-90
2024/02/19 00:40:23;;;;;;;19.05;6.15;;;9.60;99.90;;;;;;6322779;28;20050;-90
2024/02/19 00:43:25;;;;;;;19.88;7.20;;;9.50;99.90;;;;;;6316883;28;20087;-90
2024/02/19 00:46:27;;;;;;;17.00;6.32;;;9.40;99.90;;;;;;6307242;28;20064;-90
2024/02/19 00:49:28;;;;;;;21.85;6.50;;;9.40;99.90;;;;;;6307272;28;20088;-90
2024/02/19 00:52:30;;;;;;;18.75;6.57;;;9.30;99.90;;;;;;6322924;28;20395;-88
2024/02/19 00:55:32;;;;;;;19.80;6.70;;;9.20;99.90;;;;;;6303142;28;20048;-91
2024/02/19 00:58:34;;;;;;;19.27;6.47;;;9.10;99.90;;;;;;6309104;28;20054;-92
2024/02/19 01:01:35;;;;;;;19.55;7.25;;;9.10;99.90;;;;;;6331409;28;20067;-90
2024/02/19 01:04:37;;;;;;;20.63;6.57;;;9.00;99.90;;;;;;6310430;28;20044;-91
2024/02/19 01:07:39;;;;;;;17.90;6.10;;;9.00;99.90;;;;;;6331775;28;20075;-91
2024/02/19 01:10:41;;;;;;;23.63;7.00;;;9.00;99.90;;;;;;6311900;28;20051;-91
2024/02/19 01:13:42;;;;;;;19.80;6.72;;;8.90;99.90;;;;;;6321040;28;20066;-92
2024/02/19 01:16:45;;;;;;;18.45;6.57;;;8.90;99.90;;;;;;6331881;28;20048;-91
2024/02/19 01:19:46;;;;;;;18.85;6.50;;;8.80;99.90;;;;;;6309072;28;20052;-90
2024/02/19 01:22:48;;;;;;;20.20;6.65;;;8.80;99.90;;;;;;6328298;28;20063;-90
2024/02/19 01:25:52;;;;;;;17.17;6.45;;;8.70;99.90;;;;;;6301043;28;20040;-91
2024/02/19 01:28:53;;;;;;;17.25;6.03;;;8.70;99.90;;;;;;6313856;28;20108;-90
2024/02/19 01:31:55;;;;;;;19.33;6.40;;;8.70;99.90;;;;;;6325491;28;20057;-91
2024/02/19 01:34:57;;;;;;;20.17;5.93;;;8.60;99.90;;;;;;6304184;28;20411;-91
2024/02/19 01:37:59;;;;;;;17.63;6.57;;;8.50;99.90;;;;;;6325199;28;20052;-91
2024/02/19 01:41:00;;;;;;;17.92;5.85;;;8.50;99.90;;;;;;6297240;28;20057;-91
2024/02/19 01:44:02;;;;;;;15.73;6.05;;;8.70;99.90;;;;;;6305571;28;20060;-91
2024/02/19 01:47:04;;;;;;;24.42;6.68;;;8.50;99.90;;;;;;6322972;28;20051;-91
2024/02/19 01:50:05;;;;;;;16.33;6.50;;;8.40;99.90;;;;;;6304045;28;20060;-91
2024/02/19 01:53:07;;;;;;;17.88;6.05;;;8.40;99.90;;;;;;6324668;28;20052;-91
2024/02/19 01:56:09;;;;;;;18.67;6.15;;;8.40;99.90;;;;;;6301459;28;20499;-91
2024/02/19 01:59:13;;;;;;;17.77;6.03;;;8.40;99.90;;;;;;6306566;28;20098;-91
2024/02/19 02:02:16;;;;;;;16.65;5.72;;;8.40;99.90;;;;;;6341038;28;20040;-92
2024/02/19 02:05:19;;;;;;;19.10;6.18;;;8.40;99.90;;;;;;6323275;28;20063;-91
2024/02/19 02:08:24;;;;;;;20.08;5.78;;;8.40;99.90;;;;;;6344293;28;20052;-92
2024/02/19 02:11:26;;;;;;;15.48;5.22;;;8.30;99.90;;;;;;6322189;28;20040;-92
2024/02/19 02:14:27;;;;;;;19.20;5.97;;;8.30;99.90;;;;;;6315211;28;20063;-92
2024/02/19 02:17:29;;;;;;;24.05;6.65;;;8.30;99.90;;;;;;6331143;28;20063;-92
2024/02/19 02:20:31;;;;;;;16.52;5.55;;;8.20;99.90;;;;;;6336836;28;20210;-91
2024/02/19 02:23:33;;;;;;;18.98;5.53;;;8.30;99.90;;;;;;6304053;28;20055;-91
2024/02/19 02:26:35;;;;;;;18.50;5.97;;;8.20;99.90;;;;;;6326823;28;20055;-91
2024/02/19 02:29:37;;;;;;;14.63;5.45;;;8.30;99.90;;;;;;6313344;28;20051;-90
2024/02/19 02:32:39;;;;;;;16.60;5.65;;;8.30;99.90;;;;;;6301437;28;20061;-90
2024/02/19 02:35:40;;;;;;;18.23;5.57;;;8.30;99.90;;;;;;6325849;28;20044;-91
2024/02/19 02:38:42;;;;;;;19.58;5.40;;;8.30;99.90;;;;;;6300973;28;20055;-92
2024/02/19 02:41:44;;;;;;;21.65;5.93;;;8.20;99.90;;;;;;6329091;28;20052;-91
2024/02/19 02:44:46;;;;;;;14.35;5.40;;;8.20;99.90;;;;;;6296500;28;20060;-90
2024/02/19 02:47:47;;;;;;;16.38;5.63;;;8.20;99.90;;;;;;6315506;28;20081;-90
2024/02/19 02:50:49;;;;;;;14.95;5.50;;;8.20;99.90;;;;;;6327089;28;20056;-90
2024/02/19 02:53:51;;;;;;;19.25;5.95;;;8.10;99.90;;;;;;6308373;28;20125;-90
2024/02/19 02:56:53;;;;;;;17.55;5.57;;;8.10;99.90;;;;;;6301128;28;20620;-91
2024/02/19 02:59:54;;;;;;;15.93;6.25;;;8.10;99.90;;;;;;6327619;28;20048;-90
2024/02/19 03:02:56;;;;;;;18.25;6.43;;;8.10;99.90;;;;;;6300982;28;20055;-91
2024/02/19 03:05:57;;;;;;;15.75;5.43;;;8.00;99.90;;;;;;6324604;28;20718;-91
2024/02/19 03:08:59;;;;;;;18.15;5.82;;;8.00;99.90;;;;;;6302893;28;20054;-92
2024/02/19 03:12:01;;;;;;;23.55;5.88;;;7.90;99.90;;;;;;6322391;28;20125;-90
2024/02/19 03:15:04;;;;;;;18.23;5.90;;;7.90;99.90;;;;;;6321587;28;20122;-91
2024/02/19 03:18:05;;;;;;;19.50;6.22;;;8.00;99.90;;;;;;6301040;28;20067;-91
2024/02/19 03:21:07;;;;;;;12.20;5.25;;;8.00;99.90;;;;;;6302347;28;20052;-90
2024/02/19 03:24:09;;;;;;;22.08;6.43;;;8.00;99.90;;;;;;6324498;28;20494;-90
2024/02/19 03:27:12;;;;;;;17.60;5.85;;;8.00;99.90;;;;;;6301679;28;20067;-90
2024/02/19 03:30:13;;;;;;;18.55;6.28;;;8.00;99.90;;;;;;6305964;28;20488;-91
2024/02/19 03:33:15;;;;;;;17.42;6.10;;;8.00;99.90;;;;;;6325832;28;20055;-91
2024/02/19 03:36:17;;;;;;;17.73;6.13;;;7.90;99.90;;;;;;6300229;28;20048;-90
2024/02/19 03:39:19;;;;;;;19.45;6.65;;;7.90;99.90;;;;;;6326912;28;20060;-92
2024/02/19 03:42:20;;;;;;;21.10;6.45;;;7.90;99.90;;;;;;6302972;28;20068;-91
2024/02/19 03:45:22;;;;;;;15.50;5.72;;;7.90;99.90;;;;;;6316319;28;20044;-91
2024/02/19 03:48:24;;;;;;;14.93;5.50;;;7.80;99.90;;;;;;6310627;28;20044;-92
2024/02/19 03:51:25;;;;;;;19.13;5.80;;;7.80;99.90;;;;;;6322601;28;20048;-92
2024/02/19 03:54:27;;;;;;;18.40;6.25;;;7.80;99.90;;;;;;6321665;28;20056;-91
2024/02/19 03:57:29;;;;;;;18.42;6.15;;;7.80;99.90;;;;;;6322356;28;20056;-91
2024/02/19 04:00:31;;;;;;;14.63;5.60;;;7.80;99.90;;;;;;6303888;28;20059;-91
2024/02/19 04:03:32;;;;;;;21.08;6.18;;;7.80;99.90;;;;;;6276063;28;20059;-90
2024/02/19 04:06:34;;;;;;;15.73;6.35;;;7.80;99.90;;;;;;6305981;28;20064;-87
2024/02/19 04:09:36;;;;;;;19.65;5.80;;;7.90;99.90;;;;;;6301290;28;20506;-91
2024/02/19 04:12:38;;;;;;;18.63;6.18;;;7.90;99.90;;;;;;6327090;28;20054;-91
2024/02/19 04:15:40;;;;;;;14.73;5.28;;;7.90;99.90;;;;;;6301389;28;20056;-90
2024/02/19 04:18:41;;;;;;;15.32;5.85;;;7.90;99.90;;;;;;6283857;28;20507;-91
2024/02/19 04:21:44;;;;;;;19.02;6.82;;;8.00;99.90;;;;;;6308819;28;20048;-91
2024/02/19 04:24:45;;;;;;;16.45;6.93;;;8.10;99.90;;;;;;6312822;28;20480;-90
2024/02/19 04:27:47;;;;;;;15.68;6.95;;;8.20;99.90;;;;;;6321204;28;20047;-90
2024/02/19 04:30:49;;;;;;;16.40;6.40;;;8.10;99.90;;;;;;6298902;28;20126;-90
2024/02/19 04:33:51;;;;;;;19.33;6.68;;;8.00;99.90;;;;;;6294076;28;20044;-90
2024/02/19 04:36:53;;;;;;;19.52;7.15;;;8.00;99.90;;;;;;6311859;28;20051;-90
2024/02/19 04:39:55;;;;;;;18.63;7.50;;;8.10;99.90;;;;;;6303681;28;20048;-90
2024/02/19 04:42:56;;;;;;;17.35;7.82;;;8.10;99.90;;;;;;6312863;28;20044;-92
2024/02/19 04:45:58;;;;;;;19.98;8.40;;;8.10;99.90;;;;;;6292253;28;20045;-90
2024/02/19 04:49:00;;;;;;;19.65;7.70;;;8.20;99.90;;;;;;6314199;28;20503;-90
2024/02/19 04:52:01;;;;;;;16.45;7.70;;;8.20;99.90;;;;;;6307166;28;20095;-90
2024/02/19 04:55:03;;;;;;;18.30;7.97;;;8.20;99.90;;;;;;6303189;28;20053;-89
2024/02/19 04:58:05;;;;;;;16.45;7.38;;;8.20;99.90;;;;;;6317974;28;20121;-89
2024/02/19 05:01:07;;;;;;;15.75;6.95;;;8.30;99.90;;;;;;6280266;28;20053;-90
2024/02/19 05:04:09;;;;;;;16.83;7.50;;;8.30;99.90;;;;;;6323977;28;20153;-90
2024/02/19 05:07:11;;;;;;;17.15;7.07;;;8.40;99.90;;;;;;6299532;28;20115;-89
2024/02/19 05:10:13;;;;;;;17.83;6.93;;;8.30;99.90;;;;;;6320208;28;20040;-89
2024/02/19 05:13:14;;;;;;;17.55;6.90;;;8.40;99.90;;;;;;6302941;28;20134;-90
2024/02/19 05:16:16;;;;;;;19.80;7.07;;;8.40;99.90;;;;;;6319445;28;20044;-88
2024/02/19 05:19:18;;;;;;;18.95;7.63;;;8.40;99.90;;;;;;6297911;28;20052;-89
2024/02/19 05:22:20;;;;;;;16.60;6.97;;;8.50;99.90;;;;;;6316426;28;20556;-90
2024/02/19 05:25:22;;;;;;;17.08;6.90;;;8.50;99.90;;;;;;6312248;28;20048;-88
2024/02/19 05:28:24;;;;;;;17.55;8.05;;;8.50;99.90;;;;;;6311076;28;20045;-81
2024/02/19 05:31:26;;;;;;;18.73;7.57;;;8.60;99.90;;;;;;6300523;28;20049;-89
2024/02/19 05:34:29;;;;;;;17.08;7.00;;;8.60;99.90;;;;;;6316671;28;20526;-91
2024/02/19 05:37:32;;;;;;;18.08;7.45;;;8.70;99.90;;;;;;6299271;28;20053;-85
2024/02/19 05:40:33;;;;;;;22.35;7.80;;;8.70;99.90;;;;;;6299760;28;20052;-84
2024/02/19 05:43:35;;;;;;;18.52;7.50;;;8.80;99.90;;;;;;6311578;28;20055;-83
2024/02/19 05:46:36;;;;;;;15.82;7.32;;;8.90;99.90;;;;;;6336591;28;20067;-93
2024/02/19 05:49:38;;;;;;;19.85;7.45;;;8.90;99.90;;;;;;6328677;28;20048;-91
2024/02/19 05:52:43;;;;;;;16.35;6.15;;;9.00;99.90;;;;;;6301467;28;20688;-91
2024/02/19 05:55:45;;;;;;;15.85;6.05;;;9.00;99.90;;;;;;6332315;28;20048;-91
2024/02/19 05:58:47;;;;;;;16.30;7.07;;;9.00;99.90;;;;;;6317228;28;20063;-92
2024/02/19 06:01:50;;;;;;;18.48;6.72;;;9.00;99.90;;;;;;6305059;28;20049;-91
2024/02/19 06:04:52;;;;;;;21.80;6.75;;;9.00;99.90;;;;;;6334588;28;20130;-91
2024/02/19 06:07:53;;;;;;;18.23;6.93;;;9.00;99.90;;;;;;6307288;28;20125;-94
2024/02/19 06:10:55;;;;;;;19.23;6.60;;;9.10;99.90;;;;;;6339950;28;20066;-92
2024/02/19 06:13:57;;;;;;;16.40;6.57;;;9.10;99.90;;;;;;6332351;28;20059;-92
2024/02/19 06:16:59;;;;;;;15.23;6.30;;;9.20;99.90;;;;;;6329863;28;20091;-91
2024/02/19 06:20:01;;;;;;;16.00;5.95;;;9.20;99.90;;;;;;6346173;28;20058;-90
2024/02/19 06:23:03;;;;;;;14.20;5.57;;;9.30;99.90;;;;;;6316757;28;20047;-92
2024/02/19 06:26:06;;;;;;;15.48;4.95;;;9.30;99.90;;;;;;6305704;28;20048;-91
2024/02/19 06:29:08;;;;;;;16.10;5.55;;;9.40;99.90;;;;;;6310489;28;20059;-92
2024/02/19 06:32:11;;;;;;;19.08;5.40;;;9.50;99.90;;;;;;6329336;28;20052;-91
2024/02/19 06:35:13;;;;;;;18.00;5.13;;;9.50;99.90;;;;;;6304906;28;20071;-91
2024/02/19 06:38:15;;;;;;;16.75;5.07;;;9.60;99.90;;;;;;6307177;28;20127;-91
2024/02/19 06:41:17;;;;;;;15.07;5.00;;;9.70;99.90;;;;;;6332002;28;20670;-91
2024/02/19 06:44:19;;;;;;;17.63;4.72;;;9.50;99.90;;;;;;6314389;28;20048;-93
2024/02/19 06:47:20;;;;;;;17.05;4.50;;;9.80;99.90;;;;;;6306944;28;20056;-92
2024/02/19 06:50:22;;;;;;;14.93;4.60;;;9.40;99.90;;;;;;6333524;28;20056;-92
2024/02/19 06:53:24;;;;;;;16.90;4.60;;;9.40;99.90;;;;;;6314241;28;20044;-92
2024/02/19 06:56:25;;;;;;;16.80;4.55;;;9.30;99.90;;;;;;6338127;28;20052;-92
2024/02/19 06:59:27;;;;;;;16.85;4.22;;;9.30;99.90;;;;;;6308634;28;20049;-92
2024/02/19 07:02:29;;;;;;;13.88;4.78;;;9.20;99.90;;;;;;6331761;28;20048;-92
2024/02/19 07:05:30;;;;;;;13.98;4.20;;;9.30;99.90;;;;;;6338288;28;20058;-91
2024/02/19 07:08:32;;;;;;;15.52;4.95;;;9.20;99.90;;;;;;6332485;28;20768;-92
2024/02/19 07:11:34;;;;;;;17.88;4.93;;;9.20;99.90;;;;;;6324656;28;20041;-92
2024/02/19 07:14:40;;;;;;;11.55;3.90;;;9.20;99.90;;;;;;6288935;28;20056;-90
2024/02/19 07:17:42;;;;;;;15.50;4.07;;;9.30;99.90;;;;;;6316314;28;20044;-90
2024/02/19 07:20:44;;;;;;;15.07;4.10;;;9.30;99.90;;;;;;6336550;28;20047;-92
2024/02/19 07:23:46;;;;;;;13.02;3.78;;;9.30;99.90;;;;;;6315047;28;20045;-92
2024/02/19 07:26:48;;;;;;;15.93;3.50;;;9.30;99.90;;;;;;6320567;28;20509;-91
2024/02/19 07:29:51;;;;;;;16.63;4.10;;;9.30;99.90;;;;;;6308245;28;20044;-91
2024/02/19 07:32:53;;;;;;;11.43;3.53;;;9.30;99.90;;;;;;6336872;28;20056;-93
2024/02/19 07:35:55;;;;;;;16.88;3.95;;;9.30;99.90;;;;;;6306117;28;20128;-90
2024/02/19 07:38:57;;;;;;;13.57;3.47;;;9.20;99.90;;;;;;6326306;28;20051;-91
2024/02/19 07:42:00;;;;;;;15.45;3.20;;;9.20;99.90;;;;;;6302415;28;20051;-91
2024/02/19 07:45:02;;;;;;;15.32;3.33;;;9.20;99.90;;;;;;6301077;28;20048;-89
2024/02/19 07:48:06;;;;;;;13.15;3.40;;;9.30;99.90;;;;;;6307849;28;20072;-90
2024/02/19 07:51:08;;;;;;;12.00;2.70;;;9.30;99.90;;;;;;6314653;28;20054;-89
2024/02/19 07:54:10;;;;;;;12.98;2.42;;;9.30;99.90;;;;;;6298585;28;20186;-88
2024/02/19 07:57:11;;;;;;;13.20;2.95;;;9.40;99.90;;;;;;6307035;28;20052;-90
2024/02/19 08:00:13;;;;;;;16.23;3.00;;;9.50;99.90;;;;;;6301771;28;20052;-92
2024/02/19 08:03:15;;;;;;;13.52;2.75;;;9.50;99.90;;;;;;6311054;28;20048;-93
2024/02/19 08:06:16;;;;;;;14.15;3.13;;;9.60;99.90;;;;;;6315303;28;20052;-94
2024/02/19 08:09:18;;;;;;;13.52;2.30;;;9.70;99.90;;;;;;6310317;28;20056;-85
2024/02/19 08:12:20;;;;;;;11.20;2.70;;;9.80;99.90;;;;;;6301193;28;20044;-90
2024/02/19 08:15:22;;;;;;;7.53;2.03;;;9.90;99.90;;;;;;6288433;28;20056;-91
2024/02/19 08:18:24;;;;;;;13.02;2.85;;;10.00;99.90;;;;;;6298210;28;20052;-91
2024/02/19 08:21:26;;;;;;;8.77;2.30;;;10.00;99.90;;;;;;6297233;28;20423;-84
2024/02/19 08:24:28;;;;;;;9.85;2.25;;;10.00;99.90;;;;;;6317900;28;20047;-94
2024/02/19 08:27:30;;;;;;;9.15;2.15;;;10.00;99.90;;;;;;6315610;28;20071;-95
2024/02/19 08:30:31;;;;;;;7.60;1.80;;;10.10;99.90;;;;;;6294396;28;20056;-93
2024/02/19 08:33:33;;;;;;;10.20;2.10;;;10.20;99.90;;;;;;6310036;28;20506;-87
2024/02/19 08:36:36;;;;;;;11.82;2.15;;;10.20;99.90;;;;;;6299477;28;20052;-90
2024/02/19 08:39:38;;;;;;;11.73;2.45;;;10.30;99.90;;;;;;6323133;28;20062;-90
2024/02/19 08:42:43;;;;;;;6.68;1.70;;;10.40;99.90;;;;;;6300685;28;20059;-90
2024/02/19 08:45:45;;;;;;;12.10;1.83;;;10.40;99.90;;;;;;6318746;28;20070;-91
2024/02/19 08:48:47;;;;;;;13.82;2.42;;;10.50;99.90;;;;;;6307412;28;20407;-90
2024/02/19 08:51:52;;;;;;;10.10;2.30;;;10.40;99.90;;;;;;6304374;28;20555;-91
2024/02/19 08:54:54;;;;;;;10.85;2.20;;;10.40;99.90;;;;;;6324327;28;20070;-91
2024/02/19 08:57:55;;;;;;;14.55;2.42;;;10.50;99.90;;;;;;6300015;28;20449;-90
2024/02/19 09:00:59;;;;;;;12.98;2.10;;;10.70;99.90;;;;;;6315182;28;20083;-82
2024/02/19 09:04:03;;;;;;;12.73;2.47;;;10.40;99.90;;;;;;6300027;28;20061;-83
2024/02/19 09:07:05;;;;;;;14.05;2.17;;;10.30;99.90;;;;;;6301024;28;20056;-88
2024/02/19 09:10:07;;;;;;;15.43;2.47;;;10.40;99.90;;;;;;6300172;28;20051;-89
2024/02/19 09:13:08;;;;;;;13.10;2.03;;;10.50;99.90;;;;;;6299567;28;20503;-84
2024/02/19 09:16:10;;;;;;;12.25;2.42;;;10.50;99.90;;;;;;6308368;28;20052;-84
2024/02/19 09:19:14;;;;;;;17.58;2.33;;;10.50;99.90;;;;;;6297775;28;20056;-86
2024/02/19 09:22:16;;;;;;;15.40;1.90;;;10.60;99.90;;;;;;6306285;28;20055;-85
2024/02/19 09:25:17;;;;;;;17.63;2.55;;;10.70;99.90;;;;;;6299346;28;20491;-86
2024/02/19 09:28:19;;;;;;;11.23;2.38;;;10.70;99.90;;;;;;6280756;28;20055;-86
2024/02/19 09:31:23;;;;;;;10.95;1.77;;;11.00;99.90;;;;;;6300919;28;20566;-81
2024/02/19 09:34:25;;;;;;;10.75;1.80;;;10.80;99.90;;;;;;6314251;28;20067;-85
2024/02/19 09:37:27;;;;;;;10.60;1.75;;;10.70;99.90;;;;;;6321606;28;20059;-83
2024/02/19 09:40:28;;;;;;;12.35;1.70;;;10.70;99.90;;;;;;6308857;28;20064;-83
2024/02/19 09:43:30;;;;;;;11.73;2.17;;;10.70;99.90;;;;;;6291333;28;20419;-84
2024/02/19 09:46:33;;;;;;;12.95;2.00;;;10.70;99.90;;;;;;6312760;28;20121;-85
2024/02/19 09:49:37;;;;;;;12.02;1.88;;;10.70;99.90;;;;;;6318761;28;20048;-87
2024/02/19 09:52:39;;;;;;;13.82;2.03;;;10.70;99.90;;;;;;6308673;28;20130;-89
2024/02/19 09:55:41;;;;;;;14.27;1.95;;;10.90;99.90;;;;;;6308575;28;20048;-89
2024/02/19 09:58:42;;;;;;;11.85;1.60;;;11.00;99.90;;;;;;6320621;28;20044;-89
2024/02/19 10:01:44;;;;;;;11.90;1.50;;;11.10;99.90;;;;;;6311003;28;20470;-86
2024/02/19 10:04:46;;;;;;;11.30;1.70;;;11.20;99.90;;;;;;6323475;28;20045;-87
2024/02/19 10:07:48;;;;;;;9.27;1.92;;;11.30;99.90;;;;;;6327717;28;20048;-92
2024/02/19 10:10:50;;;;;;;8.32;1.90;;;11.50;99.90;;;;;;6340050;28;20070;-91
2024/02/19 10:13:52;;;;;;;14.38;2.22;;;11.80;99.90;;;;;;6322157;28;20182;-90
2024/02/19 10:16:55;;;;;;;13.77;2.97;;;11.90;99.90;;;;;;6305917;28;20411;-92
2024/02/19 10:19:56;;;;;;;9.80;1.58;;;11.90;99.90;;;;;;6307553;28;20135;-92
2024/02/19 10:22:58;;;;;;;13.35;1.88;;;11.80;99.90;;;;;;6331062;28;20050;-93
2024/02/19 10:26:00;;;;;;;14.23;2.08;;;11.80;99.90;;;;;;6315273;28;20123;-93
2024/02/19 10:29:01;;;;;;;11.30;2.53;;;11.60;99.90;;;;;;6313317;28;20055;-90
2024/02/19 10:32:03;;;;;;;8.18;1.60;;;11.60;99.90;;;;;;6322620;28;20092;-90
2024/02/19 10:35:05;;;;;;;15.50;1.90;;;11.60;99.90;;;;;;6300183;28;20048;-89
2024/02/19 10:38:07;;;;;;;11.30;2.00;;;11.60;99.90;;;;;;6324825;28;20538;-89
2024/02/19 10:41:11;;;;;;;15.10;1.70;;;11.40;99.90;;;;;;6299551;28;20066;-90
2024/02/19 10:44:17;;;;;;;13.82;2.25;;;11.50;99.90;;;;;;6290616;28;20612;-92
2024/02/19 10:47:18;;;;;;;13.20;2.78;;;11.50;99.90;;;;;;6324499;28;20059;-89
2024/02/19 10:50:20;;;;;;;13.77;2.25;;;11.50;99.90;;;;;;6300645;28;20407;-88
2024/02/19 10:53:22;;;;;;;15.43;2.53;;;11.30;99.90;;;;;;6322902;28;20406;-91
2024/02/19 10:56:24;;;;;;;10.55;1.85;;;11.40;99.90;;;;;;6299289;28;20056;-89
2024/02/19 10:59:27;;;;;;;11.05;2.58;;;11.40;99.90;;;;;;6305600;28;20105;-89
2024/02/19 11:02:29;;;;;;;9.10;2.00;;;11.40;99.90;;;;;;6298273;28;20500;-91
2024/02/19 11:05:34;;;;;;;10.75;2.10;;;11.50;99.90;;;;;;6323557;28;20060;-88
2024/02/19 11:08:36;;;;;;;12.13;2.38;;;11.70;99.90;;;;;;6299208;28;20049;-90
2024/02/19 11:11:41;;;;;;;8.60;1.85;;;12.00;99.90;;;;;;6325215;28;20048;-92
2024/02/19 11:14:45;;;;;;;11.10;1.52;;;12.10;99.90;;;;;;6285168;28;20344;-91
2024/02/19 11:17:51;;;;;;;14.98;2.00;;;12.20;99.90;;;;;;6323741;28;20056;-93
2024/02/19 11:20:53;;;;;;;14.77;2.08;;;12.30;99.90;;;;;;6275798;28;20064;-92
2024/02/19 11:23:55;;;;;;;10.73;1.77;;;12.20;99.90;;;;;;6324798;28;20059;-92
2024/02/19 11:26:57;;;;;;;11.18;1.52;;;12.00;99.90;;;;;;6297952;28;20056;-89
2024/02/19 11:30:00;;;;;;;9.10;1.88;;;11.80;99.90;;;;;;6300812;28;20052;-88
2024/02/19 11:33:02;;;;;;;10.65;2.00;;;11.60;99.90;;;;;;6296716;28;20052;-87
2024/02/19 11:36:04;;;;;;;10.75;2.35;;;11.60;99.90;;;;;;6320952;28;20054;-88
2024/02/19 11:39:07;;;;;;;5.90;1.52;;;12.00;99.90;;;;;;6295844;28;20059;-89
2024/02/19 11:42:11;;;;;;;7.18;1.70;;;13.00;99.90;;;;;;6320638;28;20052;-89
2024/02/19 11:45:13;;;;;;;6.07;1.60;;;13.10;99.90;;;;;;6294805;28;20415;-89
2024/02/19 11:48:15;;;;;;;12.30;2.13;;;13.50;99.90;;;;;;6317519;28;20397;-88
2024/02/19 11:51:17;;;;;;;6.85;1.58;;;14.50;99.90;;;;;;6295855;28;20218;-90
2024/02/19 11:54:19;;;;;;;7.20;2.15;;;14.70;95.90;;;;;;6320380;28;20514;-90
2024/02/19 11:57:25;;;;;;;7.68;1.27;;;14.40;96.70;;;;;;6296179;28;20052;-91
2024/02/19 12:00:29;;;;;;;10.23;1.50;;;15.10;94.70;;;;;;6316856;28;20067;-90
2024/02/19 12:03:31;;;;;;;6.55;1.45;;;15.50;92.30;;;;;;6271504;28;20136;-90
2024/02/19 12:06:33;;;;;;;5.55;1.20;;;16.10;83.50;;;;;;6320385;28;20055;-89
2024/02/19 12:09:35;;;;;;;5.18;1.00;;;16.20;71.10;;;;;;6297401;28;20040;-91
2024/02/19 12:12:37;;;;;;;4.30;1.00;;;16.10;31.50;;;;;;6321108;28;20058;-92
2024/02/19 12:15:41;;;;;;;5.63;1.13;;;16.00;22.10;;;;;;6291435;28;20106;-93
2024/02/19 12:18:47;;;;;;;6.47;1.17;;;16.20;4.50;;;;;;6308386;28;20079;-91
2024/02/19 12:21:49;;;;;;;4.55;1.10;;;16.40;15.40;;;;;;6307063;28;20067;-94
2024/02/19 12:24:59;;;;;;;5.43;1.33;;;16.60;29.10;;;;;;6282046;28;20519;-92
2024/02/19 12:28:09;;;;;;;6.63;1.45;;;17.00;1.00;;;;;;6313653;28;20052;-95
2024/02/19 12:31:13;;;;;;;4.18;1.10;;;17.20;1.00;;;;;;6329226;28;20080;-92
2024/02/19 12:34:15;;;;;;;4.97;1.40;;;17.60;1.00;;;;;;6307385;28;20593;-93
2024/02/19 12:37:17;;;;;;;5.22;1.35;;;17.40;1.00;;;;;;6329261;28;20126;-92
2024/02/19 12:40:19;;;;;;;10.48;1.50;;;17.00;1.00;;;;;;6299284;28;20064;-90
2024/02/19 12:47:05;;;;;;;6.10;1.10;;;16.10;1.00;;;;;;6307814;28;20064;-94
2024/02/19 12:50:08;;;;;;;6.57;1.10;;;15.90;1.00;;;;;;6330328;28;20058;-94
2024/02/19 12:53:15;;;;;;;5.78;1.35;;;15.60;1.00;;;;;;6283257;28;20076;-93
2024/02/19 12:56:17;;;;;;;7.55;1.30;;;15.00;1.00;;;;;;6334080;28;20071;-94
2024/02/19 12:59:19;;;;;;;4.18;1.20;;;14.70;1.00;;;;;;6297859;28;20072;-92
2024/02/19 13:02:23;;;;;;;7.82;1.58;;;14.40;1.00;;;;;;6321838;28;20040;-93
2024/02/19 13:05:34;;;;;;;5.47;1.15;;;14.20;1.00;;;;;;6292214;28;20029;-92
2024/02/19 13:08:50;;;;;;;9.15;1.35;;;14.30;5.40;;;;;;6294618;28;20103;-93
2024/02/19 13:12:03;;;;;;;4.35;1.60;;;14.20;18.10;;;;;;6290402;28;20049;-93
2024/02/19 13:15:14;;;;;;;10.88;1.77;;;14.20;16.80;;;;;;6276344;28;20519;-93
2024/02/19 13:18:21;;;;;;;7.40;1.67;;;14.30;16.40;;;;;;6300920;28;20396;-93
2024/02/19 13:21:23;;;;;;;6.63;1.73;;;14.70;18.30;;;;;;6283945;28;20057;-93
2024/02/19 13:24:25;;;;;;;9.15;1.85;;;14.90;16.20;;;;;;6325261;28;20407;-94
2024/02/19 13:27:27;;;;;;;7.15;1.40;;;14.80;7.00;;;;;;6310071;28;20052;-93
2024/02/19 13:30:29;;;;;;;8.55;1.52;;;14.70;13.60;;;;;;6322676;28;20116;-92
2024/02/19 13:33:31;;;;;;;7.15;1.50;;;14.70;22.90;;;;;;6305537;28;20529;-93
2024/02/19 13:36:54;;;;;;;11.13;1.85;;;14.80;22.70;;;;;;6254261;23;20376;-94
2024/02/19 13:39:59;;;;;;;7.93;1.30;;;15.00;10.00;;;;;;6181650;28;20062;-93
2024/02/19 13:43:01;;;;;;;8.60;1.33;;;15.20;1.00;;;;;;6189113;28;20506;-93
2024/02/19 13:46:06;;;;;;;5.15;1.35;;;15.50;1.00;;;;;;6179717;28;20070;-93
2024/02/19 13:49:09;;;;;;;6.45;1.20;;;15.80;1.00;;;;;;6209459;28;20050;-89
2024/02/19 13:52:14;;;;;;;5.75;1.00;;;15.90;1.00;;;;;;6180787;28;20121;-86
2024/02/19 13:55:16;;;;;;;8.23;1.42;;;16.20;1.00;;;;;;6182325;28;20371;-88
2024/02/19 13:58:19;;;;;;;5.10;1.42;;;15.90;1.00;;;;;;6197175;28;20061;-87
2024/02/19 14:01:21;;;;;;;4.90;1.23;;;16.10;1.00;;;;;;6182717;28;20148;-89
2024/02/19 14:04:23;;;;;;;7.05;1.45;;;16.40;1.00;;;;;;6198978;28;20051;-89
2024/02/19 14:07:25;;;;;;;6.50;1.13;;;15.90;1.00;;;;;;6198023;28;20065;-89
2024/02/19 14:10:29;;;;;;;7.07;1.40;;;15.60;1.00;;;;;;6190857;28;20117;-91
2024/02/19 14:13:31;;;;;;;8.02;1.40;;;15.50;1.00;;;;;;6180130;28;20335;-92
2024/02/19 14:16:47;;;;;;;6.97;1.45;;;16.20;1.00;;;;;;6184198;28;20058;-88
2024/02/19 14:19:48;;;;;;;7.78;1.30;;;16.60;1.00;;;;;;6201972;28;20058;-88
2024/02/19 14:22:50;;;;;;;5.20;1.20;;;16.30;1.00;;;;;;6192695;28;20710;-94
2024/02/19 14:25:52;;;;;;;7.15;1.27;;;16.10;1.00;;;;;;6196143;28;20061;-91
2024/02/19 14:28:54;;;;;;;6.75;1.40;;;15.80;1.00;;;;;;6169343;28;20121;-90
2024/02/19 14:31:57;;;;;;;9.50;1.27;;;15.70;1.00;;;;;;6188356;28;20069;-89
2024/02/19 14:34:59;;;;;;;7.40;1.33;;;15.70;1.00;;;;;;6182375;28;20038;-87
2024/02/19 14:38:02;;;;;;;5.80;1.40;;;15.60;1.00;;;;;;6190635;28;20278;-87
2024/02/19 14:41:04;;;;;;;6.38;1.50;;;15.30;1.00;;;;;;6176611;28;20051;-89
2024/02/19 14:44:06;;;;;;;5.50;1.30;;;15.60;1.00;;;;;;6178388;28;20884;-89
2024/02/19 14:47:08;;;;;;;10.68;1.60;;;15.80;1.00;;;;;;6191167;28;20054;-89
2024/02/19 14:50:10;;;;;;;8.82;1.77;;;15.60;1.00;;;;;;6189246;28;20069;-91
2024/02/19 14:53:12;;;;;;;6.78;1.67;;;15.50;1.00;;;;;;6174773;28;20054;-91
2024/02/19 14:56:13;;;;;;;8.23;1.30;;;15.00;1.00;;;;;;6178428;28;20422;-89
2024/02/19 14:59:15;;;;;;;8.75;1.83;;;14.70;1.00;;;;;;6182079;28;20046;-92
2024/02/19 15:02:17;;;;;;;9.35;2.10;;;14.50;1.00;;;;;;6192232;28;20121;-90
2024/02/19 15:05:19;;;;;;;8.88;2.00;;;14.30;1.00;;;;;;6218043;28;20050;-89
2024/02/19 15:08:22;;;;;;;9.75;1.90;;;14.10;1.00;;;;;;6195108;28;20137;-85
2024/02/19 15:11:24;;;;;;;10.60;2.20;;;13.90;1.00;;;;;;6196394;28;20063;-91
2024/02/19 15:14:25;;;;;;;10.13;2.05;;;13.80;1.00;;;;;;6221315;28;20057;-93
2024/02/19 15:17:27;;;;;;;9.93;2.08;;;13.70;1.00;;;;;;6182292;28;20418;-89
2024/02/19 15:20:29;;;;;;;12.43;2.70;;;13.60;1.00;;;;;;6201759;28;21105;-86
2024/02/19 15:23:31;;;;;;;9.63;2.35;;;13.50;1.00;;;;;;6183648;28;20061;-88
2024/02/19 15:26:32;;;;;;;12.98;2.30;;;13.40;1.00;;;;;;6175414;28;20062;-89
2024/02/19 15:29:34;;;;;;;12.57;2.50;;;13.40;1.00;;;;;;6175820;28;20057;-87
2024/02/19 15:32:36;;;;;;;12.70;2.42;;;13.40;1.00;;;;;;6198516;28;20054;-88
2024/02/19 15:35:38;;;;;;;13.25;2.72;;;13.30;1.00;;;;;;6185238;28;20061;-89
2024/02/19 15:38:40;;;;;;;14.45;2.60;;;13.30;1.00;;;;;;6185824;28;20434;-86
2024/02/19 15:41:41;;;;;;;15.40;2.47;;;13.40;1.00;;;;;;6174175;28;20514;-86
2024/02/19 15:44:43;;;;;;;16.48;2.63;;;13.40;1.00;;;;;;6159389;28;20055;-87
2024/02/19 15:47:45;;;;;;;14.50;2.80;;;13.50;1.00;;;;;;6186546;28;20051;-88
2024/02/19 15:50:47;;;;;;;14.15;2.60;;;13.60;1.00;;;;;;6175675;28;20062;-87